Данни от 16.08.2017 г. 18:15:58

Температура вътрешна: 27.2 °C
Температура външна: 32.0 °C
Атмосферно налягане: 997.2 hPa
Атмосферно налягане на морско равнище: 1015.0 hPa
Влажност: 48.0 %



История от последните 24 часа

Дата и часTin [°C]P [hPa]Psl [hPa]H [%]Tout [°C]
   16.08.2017 г. 18:00:58      27.2      997.3      1015.1      47.6      32.0   
   16.08.2017 г. 17:30:57      27.1      997.4      1015.2      48.1      32.6   
   16.08.2017 г. 17:00:57      27.1      997.4      1015.2      47.7      33.3   
   16.08.2017 г. 16:30:58      27.0      997.4      1015.2      48.3      34.3   
   16.08.2017 г. 16:00:57      27.0      997.7      1015.5      48.6      33.4   
   16.08.2017 г. 15:30:58      27.0      997.8      1015.6      48.5      32.8   
   16.08.2017 г. 15:00:57      26.9      998.0      1015.8      48.7      31.6   
   16.08.2017 г. 14:30:58      26.9      998.3      1016.1      49.0      30.4   
   16.08.2017 г. 14:00:58      26.9      998.6      1016.4      49.0      29.8   
   16.08.2017 г. 13:30:56      26.9      998.9      1016.7      48.7      29.3   
   16.08.2017 г. 13:00:55      26.8      999.2      1017.0      49.3      28.5   
   16.08.2017 г. 12:30:56      26.8      999.2      1017.0      49.1      28.0   
   16.08.2017 г. 12:00:55      26.8      999.5      1017.3      49.8      27.5   
   16.08.2017 г. 11:30:56      26.8      999.6      1017.4      49.2      26.9   
   16.08.2017 г. 11:00:55      26.7      999.7      1017.6      49.1      26.1   
   16.08.2017 г. 10:30:56      26.7      999.9      1017.8      49.6      25.1   
   16.08.2017 г. 10:00:56      26.6      1000.2      1018.1      49.8      24.3   
   16.08.2017 г. 09:30:56      26.5      1000.3      1018.2      49.2      23.4   
   16.08.2017 г. 09:00:56      26.5      1000.3      1018.1      49.6      22.9   
   16.08.2017 г. 08:30:56      26.3      1000.3      1018.2      50.9      22.1   
   16.08.2017 г. 08:00:56      26.1      1000.1      1018.0      50.6      21.5   
   16.08.2017 г. 07:30:57      26.0      1000.1      1017.9      49.5      21.1   
   16.08.2017 г. 07:00:56      25.9      999.9      1017.8      50.4      20.9   
   16.08.2017 г. 06:30:57      25.2      999.8      1017.7      51.5      20.3   
   16.08.2017 г. 06:00:56      26.1      999.8      1017.7      49.9      21.1   
   16.08.2017 г. 05:30:57      26.1      999.7      1017.6      48.8      21.6   
   16.08.2017 г. 05:00:56      26.1      999.6      1017.5      49.4      21.6   
   16.08.2017 г. 04:30:56      26.1      999.6      1017.4      48.6      21.5   
   16.08.2017 г. 04:00:56      25.6      999.7      1017.5      49.7      21.1   
   16.08.2017 г. 03:30:56      25.6      999.9      1017.7      51.1      21.1   
   16.08.2017 г. 03:00:57      26.2      999.9      1017.7      49.2      21.6   
   16.08.2017 г. 02:30:56      25.9      1000.0      1017.9      50.0      22.3   
   16.08.2017 г. 02:00:57      26.5      1000.1      1018.0      49.1      23.1   
   16.08.2017 г. 01:30:56      26.5      1000.3      1018.2      48.6      23.1   
   16.08.2017 г. 01:00:57      26.5      1000.1      1017.9      48.6      23.0   
   16.08.2017 г. 00:30:57      26.6      1000.2      1018.1      49.5      23.5   
   16.08.2017 г. 00:00:57      27.0      1000.4      1018.3      49.0      24.4   
   15.08.2017 г. 23:30:57      27.4      1000.7      1018.6      48.5      26.4   
   15.08.2017 г. 23:00:57      27.4      1001.0      1018.8      48.2      26.6   
   15.08.2017 г. 22:30:57      27.4      1001.0      1018.8      47.8      26.9   
   15.08.2017 г. 22:00:58      27.4      1000.5      1018.4      49.8      27.4   
   15.08.2017 г. 21:30:57      27.5      1000.1      1018.0      51.2      28.0   
   15.08.2017 г. 21:00:58      27.4      999.7      1017.6      49.6      29.1   
   15.08.2017 г. 20:30:57      27.4      999.5      1017.3      48.7      30.1   
   15.08.2017 г. 20:00:58      27.3      999.2      1017.1      48.1      30.8   
   15.08.2017 г. 19:30:57      27.3      999.0      1016.8      48.2      31.8   
   15.08.2017 г. 19:00:58      27.2      998.9      1016.7      48.0      32.5   
   15.08.2017 г. 18:30:58      27.2      999.0      1016.8      47.1      33.1   

BaroSL graphic

TEMPE graphic